Time;durP1;ratioP1;P1;durP2;ratioP2;P2;SDS_P1;SDS_P2;PMS_P1;PMS_P2;Temp;Humidity;BMP_temperature;BMP_pressure;BME280_temperature;BME280_humidity;BME280_pressure;Samples;Min_cycle;Max_cycle;Signal;HPM_P1;HPM_P2
2023/03/09 00:01:54;;;;;;;2.90;2.60;;;15.40;56.30;;;;;;5048965;28;20186;-47
2023/03/09 00:04:25;;;;;;;3.00;2.70;;;15.40;56.40;;;;;;5058683;28;20686;-46
2023/03/09 00:06:59;;;;;;;3.43;3.13;;;15.40;56.30;;;;;;5061983;28;20198;-46
2023/03/09 00:09:28;;;;;;;3.50;3.20;;;15.40;56.30;;;;;;5066305;28;20218;-46
2023/03/09 00:11:56;;;;;;;3.67;2.57;;;15.40;56.40;;;;;;5054541;28;20228;-46
2023/03/09 00:14:28;;;;;;;2.93;2.63;;;15.40;56.50;;;;;;5064826;28;20197;-46
2023/03/09 00:16:59;;;;;;;6.37;2.90;;;15.30;56.40;;;;;;5060459;28;20556;-46
2023/03/09 00:19:30;;;;;;;3.23;2.93;;;15.40;56.50;;;;;;5062327;28;20639;-46
2023/03/09 00:22:02;;;;;;;2.97;2.70;;;15.30;56.50;;;;;;5068727;28;20691;-46
2023/03/09 00:24:34;;;;;;;2.67;2.30;;;15.30;56.50;;;;;;5061858;28;20194;-46
2023/03/09 00:27:04;;;;;;;3.43;2.30;;;15.30;56.50;;;;;;5067057;28;20204;-46
2023/03/09 00:29:35;;;;;;;3.93;2.60;;;15.30;56.60;;;;;;5064711;28;20703;-46
2023/03/09 00:32:03;;;;;;;3.13;2.63;;;15.30;56.60;;;;;;5031058;28;20205;-46
2023/03/09 00:34:34;;;;;;;5.40;2.60;;;15.30;56.70;;;;;;5067748;28;20198;-46
2023/03/09 00:37:03;;;;;;;2.73;2.50;;;15.30;56.60;;;;;;5054957;28;20214;-46
2023/03/09 00:39:34;;;;;;;3.00;2.10;;;15.30;56.70;;;;;;5066139;28;20220;-46
2023/03/09 00:42:02;;;;;;;2.77;2.47;;;15.30;56.80;;;;;;5069277;28;20259;-46
2023/03/09 00:44:31;;;;;;;4.43;2.40;;;15.30;56.80;;;;;;5066436;28;20222;-46
2023/03/09 00:47:04;;;;;;;4.10;2.60;;;15.30;56.80;;;;;;5042483;28;20232;-46
2023/03/09 00:49:35;;;;;;;2.90;2.57;;;15.30;56.80;;;;;;5081492;28;20209;-46
2023/03/09 00:52:06;;;;;;;2.30;2.03;;;15.30;56.80;;;;;;5068775;28;20233;-46
2023/03/09 00:54:37;;;;;;;2.33;2.13;;;15.30;56.80;;;;;;5062543;28;20615;-46
2023/03/09 00:57:22;;;;;;;2.93;2.60;;;15.20;56.80;;;;;;5058863;28;20217;-46
2023/03/09 00:59:53;;;;;;;3.93;2.10;;;15.20;56.90;;;;;;5067894;28;20651;-46
2023/03/09 01:02:21;;;;;;;3.23;2.47;;;15.20;56.90;;;;;;5066417;28;20294;-46
2023/03/09 01:04:50;;;;;;;2.33;2.17;;;15.20;57.00;;;;;;5051450;28;20205;-46
2023/03/09 01:07:18;;;;;;;2.77;2.37;;;15.20;57.00;;;;;;5048707;28;20702;-46
2023/03/09 01:09:49;;;;;;;2.53;2.27;;;15.20;57.00;;;;;;5051620;28;20555;-46
2023/03/09 01:12:21;;;;;;;2.17;2.07;;;15.20;56.90;;;;;;5068141;28;20475;-46
2023/03/09 01:14:55;;;;;;;2.50;2.10;;;15.20;57.10;;;;;;5068344;28;20210;-47
2023/03/09 01:17:24;;;;;;;2.73;2.53;;;15.20;57.10;;;;;;5057090;28;20201;-46
2023/03/09 01:20:00;;;;;;;2.30;2.10;;;15.20;57.10;;;;;;5064692;28;20224;-46
2023/03/09 01:22:32;;;;;;;3.77;2.43;;;15.20;57.10;;;;;;5067521;28;20198;-46
2023/03/09 01:25:04;;;;;;;2.97;2.67;;;15.20;57.10;;;;;;5046923;28;20285;-46
2023/03/09 01:27:36;;;;;;;4.87;2.30;;;15.20;57.10;;;;;;5078061;28;20197;-46
2023/03/09 01:30:06;;;;;;;2.50;2.30;;;15.10;57.00;;;;;;5068058;28;20217;-46
2023/03/09 01:32:37;;;;;;;2.97;2.67;;;15.10;57.00;;;;;;5068110;28;20213;-46
2023/03/09 01:35:08;;;;;;;2.37;2.13;;;15.10;57.00;;;;;;5048434;28;20205;-46
2023/03/09 01:37:41;;;;;;;3.13;2.50;;;15.20;57.10;;;;;;5068946;28;20243;-46
2023/03/09 01:40:24;;;;;;;2.33;2.13;;;15.10;57.10;;;;;;5081294;28;20900;-46
2023/03/09 01:43:18;;;;;;;3.47;2.10;;;15.20;57.20;;;;;;5027049;28;20195;-46
2023/03/09 01:46:21;;;;;;;2.60;2.40;;;15.10;57.20;;;;;;5066020;28;20201;-46
2023/03/09 01:49:32;;;;;;;2.77;2.30;;;15.10;57.20;;;;;;5057258;28;20216;-46
2023/03/09 01:52:24;;;;;;;2.40;2.20;;;15.10;57.30;;;;;;5087106;28;20261;-46
2023/03/09 01:55:09;;;;;;;2.20;2.00;;;15.10;57.30;;;;;;5078492;28;20675;-46
2023/03/09 01:58:01;;;;;;;2.20;2.00;;;15.10;57.40;;;;;;5088198;28;20266;-46
2023/03/09 02:00:35;;;;;;;2.57;2.37;;;15.10;57.40;;;;;;5087157;28;20246;-46
2023/03/09 02:03:10;;;;;;;2.40;2.20;;;15.10;57.40;;;;;;5085242;28;20215;-46
2023/03/09 02:06:11;;;;;;;2.40;2.20;;;15.00;57.40;;;;;;5079113;28;20193;-46
2023/03/09 02:08:55;;;;;;;2.40;2.20;;;15.10;57.40;;;;;;5064235;28;20631;-46
2023/03/09 02:11:24;;;;;;;2.30;2.10;;;15.00;57.40;;;;;;5084549;28;20217;-46
2023/03/09 02:13:54;;;;;;;2.50;2.30;;;15.00;57.50;;;;;;5088162;28;20196;-46
2023/03/09 02:16:29;;;;;;;2.20;2.10;;;15.00;57.50;;;;;;5085110;28;20199;-46
2023/03/09 02:19:00;;;;;;;2.57;2.37;;;15.00;57.50;;;;;;5064255;28;20577;-47
2023/03/09 02:21:49;;;;;;;2.33;2.13;;;15.00;57.50;;;;;;5077887;28;20273;-46
2023/03/09 02:24:38;;;;;;;2.37;2.17;;;15.00;57.60;;;;;;5071397;28;20212;-46
2023/03/09 02:27:21;;;;;;;2.50;1.97;;;15.00;57.60;;;;;;5076708;28;20606;-46
2023/03/09 02:30:03;;;;;;;2.13;1.97;;;15.00;57.60;;;;;;5071492;28;20675;-46
2023/03/09 02:32:34;;;;;;;2.67;2.20;;;15.00;57.70;;;;;;5064114;28;20222;-46
2023/03/09 02:35:09;;;;;;;2.20;1.97;;;15.00;57.60;;;;;;5051034;28;20186;-46
2023/03/09 02:37:43;;;;;;;2.07;1.97;;;15.00;57.70;;;;;;5067018;28;20529;-46
2023/03/09 02:40:26;;;;;;;1.80;1.70;;;15.00;57.70;;;;;;5088434;28;20218;-46
2023/03/09 02:42:59;;;;;;;2.30;1.87;;;15.00;57.70;;;;;;5075664;28;20359;-46
2023/03/09 02:45:33;;;;;;;2.37;1.80;;;15.00;57.90;;;;;;5066262;28;20197;-46
2023/03/09 02:48:06;;;;;;;2.30;2.10;;;15.00;57.70;;;;;;5088180;28;20673;-46
2023/03/09 02:50:36;;;;;;;2.80;1.70;;;15.00;57.80;;;;;;5071683;28;20257;-46
2023/03/09 02:53:07;;;;;;;2.27;2.07;;;14.90;57.80;;;;;;5065349;28;20548;-46
2023/03/09 02:55:38;;;;;;;1.87;1.63;;;14.90;57.80;;;;;;5054804;28;20246;-46
2023/03/09 02:58:08;;;;;;;2.00;1.73;;;15.00;57.90;;;;;;5060214;28;20185;-46
2023/03/09 03:00:40;;;;;;;1.70;1.60;;;14.90;57.80;;;;;;5083334;28;20225;-46
2023/03/09 03:03:19;;;;;;;2.90;2.00;;;14.90;57.80;;;;;;5071964;28;20397;-46
2023/03/09 03:05:52;;;;;;;2.23;2.00;;;14.90;57.90;;;;;;5082420;28;20204;-46
2023/03/09 03:08:23;;;;;;;2.33;2.13;;;14.90;57.80;;;;;;5084129;28;20201;-46
2023/03/09 03:11:04;;;;;;;2.10;1.90;;;14.90;57.90;;;;;;5071171;28;20695;-46
2023/03/09 03:13:34;;;;;;;1.93;1.80;;;14.90;57.80;;;;;;5070062;28;20218;-46
2023/03/09 03:16:06;;;;;;;2.07;1.90;;;14.90;57.90;;;;;;5074571;28;20243;-46
2023/03/09 03:18:37;;;;;;;2.03;1.80;;;14.90;57.90;;;;;;5061374;28;20196;-45
2023/03/09 03:21:09;;;;;;;2.00;1.90;;;14.90;57.90;;;;;;5080651;28;20217;-46
2023/03/09 03:23:39;;;;;;;2.20;2.00;;;14.90;57.90;;;;;;5073592;28;20189;-46
2023/03/09 03:26:09;;;;;;;2.50;2.30;;;14.90;57.90;;;;;;5083492;28;20196;-46
2023/03/09 03:28:38;;;;;;;2.03;1.83;;;14.90;57.90;;;;;;5052822;28;20204;-46
2023/03/09 03:31:10;;;;;;;2.33;2.20;;;14.90;57.90;;;;;;5073933;28;20291;-46
2023/03/09 03:33:41;;;;;;;2.07;1.87;;;14.90;58.00;;;;;;5058624;28;20649;-46
2023/03/09 03:36:13;;;;;;;3.77;2.07;;;14.90;57.90;;;;;;5080129;28;20629;-46
2023/03/09 03:38:43;;;;;;;3.53;2.40;;;14.90;57.90;;;;;;5073080;28;20220;-46
2023/03/09 03:41:15;;;;;;;2.30;2.10;;;14.90;57.90;;;;;;5073655;28;20281;-46
2023/03/09 03:43:46;;;;;;;2.40;2.20;;;14.90;57.90;;;;;;5083936;28;20657;-46
2023/03/09 03:46:17;;;;;;;2.00;1.80;;;14.90;57.90;;;;;;5087192;28;20658;-46
2023/03/09 03:48:50;;;;;;;2.50;2.30;;;14.90;58.00;;;;;;5079256;28;20787;-46
2023/03/09 03:51:21;;;;;;;2.60;2.40;;;14.90;58.00;;;;;;5063641;28;20259;-46
2023/03/09 03:53:54;;;;;;;1.90;1.80;;;14.90;58.00;;;;;;5070316;28;20645;-46
2023/03/09 03:56:36;;;;;;;2.63;2.40;;;14.90;58.00;;;;;;5072696;28;20301;-47
2023/03/09 03:59:11;;;;;;;2.60;2.30;;;14.90;58.00;;;;;;5087053;28;20200;-46
2023/03/09 04:01:42;;;;;;;2.40;2.20;;;14.90;58.00;;;;;;5087819;28;20215;-46
2023/03/09 04:04:13;;;;;;;3.23;2.30;;;14.90;58.10;;;;;;5079330;28;20192;-46
2023/03/09 04:06:47;;;;;;;2.50;2.30;;;14.80;58.00;;;;;;5084954;28;20251;-46
2023/03/09 04:09:19;;;;;;;3.47;2.40;;;14.80;58.00;;;;;;5091123;28;20193;-46
2023/03/09 04:11:51;;;;;;;2.17;2.00;;;14.80;58.00;;;;;;5085940;28;20276;-46
2023/03/09 04:14:21;;;;;;;2.43;2.23;;;14.80;58.00;;;;;;5077704;28;20190;-46
2023/03/09 04:16:51;;;;;;;3.87;2.27;;;14.80;58.00;;;;;;5072412;28;20190;-46
2023/03/09 04:19:18;;;;;;;2.50;2.30;;;14.80;57.70;;;;;;5048160;28;20217;-46
2023/03/09 04:21:48;;;;;;;2.57;2.37;;;14.80;58.10;;;;;;5075485;28;20204;-46
2023/03/09 04:24:19;;;;;;;2.80;2.60;;;14.80;58.10;;;;;;5081465;28;20251;-46
2023/03/09 04:26:50;;;;;;;2.80;2.60;;;14.90;58.70;;;;;;5089417;28;20193;-46
2023/03/09 04:29:19;;;;;;;2.53;2.33;;;14.80;58.10;;;;;;5083897;28;20223;-46
2023/03/09 04:31:49;;;;;;;2.50;2.30;;;14.80;58.10;;;;;;5083395;28;20228;-46
2023/03/09 04:34:20;;;;;;;2.97;2.70;;;14.80;58.10;;;;;;5079160;28;20213;-46
2023/03/09 04:36:49;;;;;;;4.60;2.07;;;14.80;58.10;;;;;;5076366;28;20202;-46
2023/03/09 04:39:21;;;;;;;2.50;2.30;;;14.80;58.10;;;;;;5077589;28;20209;-46
2023/03/09 04:41:51;;;;;;;2.30;2.20;;;14.80;58.10;;;;;;5074989;28;20640;-46
2023/03/09 04:44:21;;;;;;;3.00;2.70;;;14.80;58.20;;;;;;5078791;28;20270;-47
2023/03/09 04:46:54;;;;;;;2.40;2.20;;;14.80;58.20;;;;;;5080847;28;20205;-46
2023/03/09 04:49:26;;;;;;;4.23;2.27;;;14.80;58.20;;;;;;5084560;28;20184;-46
2023/03/09 04:51:59;;;;;;;2.97;2.77;;;14.80;58.20;;;;;;5068856;28;20242;-46
2023/03/09 04:54:29;;;;;;;2.40;2.20;;;14.80;58.20;;;;;;5062186;28;20309;-46
2023/03/09 04:56:58;;;;;;;2.50;2.30;;;14.80;58.30;;;;;;5065047;28;20566;-46
2023/03/09 04:59:29;;;;;;;3.97;2.50;;;14.80;58.30;;;;;;5070629;28;20427;-46
2023/03/09 05:01:58;;;;;;;2.43;2.20;;;14.80;58.30;;;;;;5063684;28;20220;-46
2023/03/09 05:04:30;;;;;;;2.67;2.47;;;14.80;58.40;;;;;;5053116;28;20216;-46
2023/03/09 05:07:00;;;;;;;3.03;2.73;;;14.80;58.30;;;;;;5064390;28;20198;-46
2023/03/09 05:09:31;;;;;;;3.07;2.40;;;14.80;58.30;;;;;;5070156;28;20255;-46
2023/03/09 05:12:03;;;;;;;2.57;2.37;;;14.70;58.30;;;;;;5053442;28;20283;-46
2023/03/09 05:14:34;;;;;;;2.90;2.70;;;14.80;58.30;;;;;;5059707;28;20195;-46
2023/03/09 05:17:01;;;;;;;3.60;2.90;;;14.70;58.30;;;;;;5061312;28;20198;-46
2023/03/09 05:19:35;;;;;;;2.90;2.70;;;14.80;58.30;;;;;;5065225;28;20218;-46
2023/03/09 05:22:06;;;;;;;2.77;2.53;;;14.70;58.30;;;;;;5066191;28;20637;-46
2023/03/09 05:24:37;;;;;;;2.83;2.60;;;14.80;58.40;;;;;;5047628;28;20683;-46
2023/03/09 05:27:09;;;;;;;3.30;3.00;;;14.70;58.30;;;;;;5060985;28;20197;-46
2023/03/09 05:29:39;;;;;;;4.50;3.30;;;14.70;58.30;;;;;;5061682;28;20205;-46
2023/03/09 05:32:10;;;;;;;2.83;2.63;;;14.70;58.40;;;;;;5051460;28;20264;-46
2023/03/09 05:34:40;;;;;;;2.97;2.77;;;14.70;58.30;;;;;;5069573;28;20198;-46
2023/03/09 05:37:11;;;;;;;5.27;2.97;;;14.70;58.30;;;;;;5066754;28;20209;-46
2023/03/09 05:39:46;;;;;;;5.40;3.13;;;14.70;58.20;;;;;;5069591;28;20226;-46
2023/03/09 05:42:17;;;;;;;2.73;2.53;;;14.70;58.20;;;;;;5064947;28;20193;-46
2023/03/09 05:44:49;;;;;;;3.17;2.80;;;14.70;58.30;;;;;;5069095;28;20217;-46
2023/03/09 05:47:27;;;;;;;4.00;2.90;;;14.70;58.20;;;;;;5045037;28;20263;-46
2023/03/09 05:49:58;;;;;;;3.50;3.20;;;14.70;58.20;;;;;;5068502;28;20209;-46
2023/03/09 05:52:28;;;;;;;3.87;3.57;;;14.70;58.20;;;;;;5070356;28;20245;-46
2023/03/09 05:55:00;;;;;;;3.63;3.33;;;14.60;58.10;;;;;;5063967;28;20202;-46
2023/03/09 05:57:31;;;;;;;4.03;3.63;;;14.70;58.10;;;;;;5069077;28;20186;-46
2023/03/09 06:00:14;;;;;;;4.53;4.13;;;14.70;58.10;;;;;;5074405;28;20533;-46
2023/03/09 06:02:43;;;;;;;4.20;3.77;;;14.70;58.00;;;;;;5054544;28;20212;-46
2023/03/09 06:05:15;;;;;;;4.10;3.70;;;14.60;58.00;;;;;;5059509;28;20401;-46
2023/03/09 06:07:42;;;;;;;4.23;3.83;;;14.60;57.90;;;;;;5061611;28;20203;-46
2023/03/09 06:10:13;;;;;;;4.40;4.00;;;14.70;57.90;;;;;;5062351;28;20193;-46
2023/03/09 06:12:42;;;;;;;4.60;4.20;;;14.70;57.90;;;;;;5068207;28;20228;-46
2023/03/09 06:15:34;;;;;;;5.57;4.57;;;14.70;57.90;;;;;;5069172;28;20556;-46
2023/03/09 06:18:17;;;;;;;5.80;3.83;;;14.70;57.90;;;;;;5059523;28;20201;-46
2023/03/09 06:20:49;;;;;;;4.80;4.33;;;14.70;58.50;;;;;;5061059;28;20225;-46
2023/03/09 06:23:17;;;;;;;5.03;4.50;;;14.70;57.90;;;;;;5056325;28;20332;-46
2023/03/09 06:25:45;;;;;;;4.93;4.43;;;14.70;57.80;;;;;;5054364;28;20205;-46
2023/03/09 06:28:14;;;;;;;9.47;4.80;;;14.70;57.80;;;;;;5069074;28;20217;-46
2023/03/09 06:30:49;;;;;;;5.37;4.57;;;14.70;57.70;;;;;;5067189;28;20209;-46
2023/03/09 06:33:16;;;;;;;6.27;5.13;;;14.70;57.70;;;;;;5046344;28;20210;-46
2023/03/09 06:35:43;;;;;;;6.37;5.47;;;14.70;57.70;;;;;;5065934;28;20196;-46
2023/03/09 06:38:13;;;;;;;10.67;5.63;;;14.70;58.00;;;;;;5067805;28;20237;-46
2023/03/09 06:40:42;;;;;;;7.30;5.13;;;14.70;59.00;;;;;;5054019;28;20197;-46
2023/03/09 06:43:16;;;;;;;5.83;5.30;;;14.70;58.70;;;;;;5049873;28;20218;-46
2023/03/09 06:45:47;;;;;;;9.90;5.20;;;14.70;58.50;;;;;;5061058;28;20567;-46
2023/03/09 06:48:23;;;;;;;7.00;5.27;;;14.70;58.40;;;;;;5065494;28;20611;-46
2023/03/09 06:50:52;;;;;;;7.00;4.73;;;14.70;58.40;;;;;;5065584;28;20263;-46
2023/03/09 06:53:23;;;;;;;7.10;5.13;;;14.70;58.30;;;;;;5065581;28;20186;-46
2023/03/09 06:55:52;;;;;;;7.53;5.60;;;14.70;58.20;;;;;;5061070;28;20226;-46
2023/03/09 06:58:22;;;;;;;6.27;5.30;;;14.70;58.10;;;;;;5060601;28;20206;-46
2023/03/09 07:00:52;;;;;;;5.50;5.00;;;14.70;58.00;;;;;;5046996;28;20202;-46
2023/03/09 07:03:19;;;;;;;5.63;5.13;;;14.70;58.00;;;;;;5046508;28;20200;-46
2023/03/09 07:05:51;;;;;;;6.27;5.60;;;14.80;57.90;;;;;;5033615;28;20541;-46
2023/03/09 07:08:22;;;;;;;7.90;5.17;;;14.70;58.30;;;;;;5063740;28;20213;-46
2023/03/09 07:10:54;;;;;;;6.43;5.23;;;14.70;57.70;;;;;;5062277;28;20750;-46
2023/03/09 07:13:24;;;;;;;7.43;5.60;;;14.70;57.70;;;;;;5061343;28;20189;-46
2023/03/09 07:15:52;;;;;;;8.27;5.23;;;14.70;57.60;;;;;;5043489;28;20275;-46
2023/03/09 07:18:28;;;;;;;6.83;5.40;;;14.70;57.50;;;;;;5061370;28;20204;-46
2023/03/09 07:21:00;;;;;;;7.53;5.20;;;14.70;57.60;;;;;;5057132;28;20214;-46
2023/03/09 07:23:33;;;;;;;6.50;5.83;;;14.70;57.50;;;;;;5033601;28;20201;-46
2023/03/09 07:26:05;;;;;;;6.83;5.73;;;14.70;57.40;;;;;;5064626;28;20598;-46
2023/03/09 07:28:40;;;;;;;9.80;5.70;;;14.70;57.40;;;;;;5062675;28;20213;-46
2023/03/09 07:31:12;;;;;;;6.93;5.77;;;14.70;57.40;;;;;;5064293;28;20221;-46
2023/03/09 07:33:48;;;;;;;7.47;6.03;;;14.80;57.50;;;;;;5044292;28;20212;-46
2023/03/09 07:36:17;;;;;;;6.30;5.70;;;14.70;57.40;;;;;;5048401;28;20198;-46
2023/03/09 07:38:49;;;;;;;8.07;6.00;;;14.70;57.40;;;;;;5065667;28;20670;-46
2023/03/09 07:41:19;;;;;;;6.73;5.80;;;14.70;57.40;;;;;;5068402;28;20211;-46
2023/03/09 07:43:48;;;;;;;6.07;5.47;;;14.70;57.30;;;;;;5063478;28;20529;-46
2023/03/09 07:46:17;;;;;;;7.27;5.93;;;14.70;57.30;;;;;;5067462;28;20209;-46
2023/03/09 07:48:48;;;;;;;7.77;6.70;;;14.70;57.30;;;;;;5054058;28;20186;-46
2023/03/09 07:51:21;;;;;;;7.97;5.53;;;14.70;57.20;;;;;;5078186;28;20241;-46
2023/03/09 07:53:51;;;;;;;6.90;5.57;;;14.70;57.30;;;;;;5087763;28;20216;-46
2023/03/09 07:56:22;;;;;;;6.00;5.40;;;14.70;57.30;;;;;;5079556;28;20209;-46
2023/03/09 07:58:55;;;;;;;7.20;6.50;;;14.70;57.20;;;;;;5073172;28;20186;-46
2023/03/09 08:01:27;;;;;;;6.40;5.67;;;14.70;57.20;;;;;;5056158;28;20202;-46
2023/03/09 08:03:58;;;;;;;6.30;5.70;;;14.70;57.20;;;;;;5065154;28;20566;-46
2023/03/09 08:06:28;;;;;;;6.23;5.63;;;14.70;57.10;;;;;;5076399;28;20193;-46
2023/03/09 08:08:58;;;;;;;6.80;6.10;;;14.70;57.10;;;;;;5077374;28;20214;-46
2023/03/09 08:11:28;;;;;;;8.43;6.03;;;14.70;57.10;;;;;;5076779;28;20258;-46
2023/03/09 08:14:00;;;;;;;8.90;6.63;;;14.70;57.10;;;;;;5065268;28;20243;-46
2023/03/09 08:16:32;;;;;;;6.60;6.00;;;14.70;57.00;;;;;;5069187;28;20201;-46
2023/03/09 08:19:02;;;;;;;6.80;6.10;;;14.70;57.00;;;;;;5095402;28;20754;-46
2023/03/09 08:21:31;;;;;;;7.10;6.30;;;14.70;57.00;;;;;;5090956;28;20197;-46
2023/03/09 08:24:02;;;;;;;7.10;6.40;;;14.70;57.00;;;;;;5067378;28;20205;-46
2023/03/09 08:26:35;;;;;;;7.37;6.43;;;14.70;57.00;;;;;;5093071;28;20193;-46
2023/03/09 08:29:12;;;;;;;7.17;6.47;;;14.70;57.00;;;;;;5087226;28;20229;-46
2023/03/09 08:31:42;;;;;;;7.47;6.00;;;14.70;57.00;;;;;;5086545;28;20588;-46
2023/03/09 08:34:20;;;;;;;6.47;5.87;;;14.70;56.90;;;;;;5082656;28;20278;-46
2023/03/09 08:36:50;;;;;;;7.17;6.23;;;14.70;56.90;;;;;;5070978;28;20190;-46
2023/03/09 08:39:19;;;;;;;8.13;6.73;;;14.70;56.90;;;;;;5089897;28;20656;-46
2023/03/09 08:41:48;;;;;;;7.67;6.97;;;14.70;56.80;;;;;;5089138;28;20205;-46
2023/03/09 08:44:17;;;;;;;6.90;6.20;;;14.70;56.80;;;;;;5087926;28;20232;-46
2023/03/09 08:46:49;;;;;;;7.20;6.50;;;14.70;56.80;;;;;;5075884;28;20190;-46
2023/03/09 08:49:19;;;;;;;6.37;5.77;;;14.70;56.80;;;;;;5087096;28;20204;-46
2023/03/09 08:51:50;;;;;;;7.23;6.20;;;14.70;56.80;;;;;;5082317;28;20241;-46
2023/03/09 08:54:17;;;;;;;7.43;6.73;;;14.70;56.80;;;;;;5089804;28;20193;-46
2023/03/09 08:56:47;;;;;;;8.60;6.87;;;14.70;56.80;;;;;;5080010;28;20213;-46
2023/03/09 08:59:20;;;;;;;6.60;5.93;;;14.70;56.80;;;;;;5088519;28;20207;-47
2023/03/09 09:02:04;;;;;;;6.73;6.13;;;14.70;56.80;;;;;;5074158;28;20288;-46
2023/03/09 09:04:34;;;;;;;6.97;6.27;;;14.70;56.90;;;;;;5063461;28;20573;-47
2023/03/09 09:07:05;;;;;;;7.27;6.57;;;14.60;56.70;;;;;;5067418;28;20201;-46
2023/03/09 09:09:36;;;;;;;7.50;6.60;;;14.70;56.70;;;;;;5086376;28;20505;-46
2023/03/09 09:12:08;;;;;;;7.70;6.90;;;14.70;56.70;;;;;;5085173;28;20721;-46
2023/03/09 09:14:40;;;;;;;6.50;5.87;;;14.70;56.70;;;;;;5063914;28;20202;-46
2023/03/09 09:17:11;;;;;;;7.40;6.60;;;14.60;56.60;;;;;;5081575;28;20205;-46
2023/03/09 09:19:43;;;;;;;7.33;6.60;;;14.70;56.60;;;;;;5085908;28;20237;-46
2023/03/09 09:22:14;;;;;;;7.30;6.60;;;14.70;56.60;;;;;;5083583;28;20204;-47
2023/03/09 09:24:45;;;;;;;7.47;6.73;;;14.70;56.60;;;;;;5062549;28;20227;-46
2023/03/09 09:27:17;;;;;;;7.20;6.50;;;14.70;56.60;;;;;;5076038;28;20255;-46
2023/03/09 09:29:47;;;;;;;6.67;5.97;;;14.60;56.60;;;;;;5087766;28;20212;-46
2023/03/09 09:32:19;;;;;;;7.80;6.77;;;14.70;56.60;;;;;;5078755;28;20236;-46
2023/03/09 09:34:49;;;;;;;7.63;6.77;;;14.60;56.50;;;;;;5069972;28;20201;-46
2023/03/09 09:37:18;;;;;;;7.50;6.60;;;14.70;56.50;;;;;;5087163;28;20235;-46
2023/03/09 09:39:48;;;;;;;7.83;7.13;;;14.70;56.50;;;;;;5084996;28;20203;-46
2023/03/09 09:42:37;;;;;;;7.47;6.73;;;14.60;56.50;;;;;;5077392;28;20538;-46
2023/03/09 09:45:31;;;;;;;8.40;7.60;;;14.70;56.50;;;;;;5058135;28;20224;-46
2023/03/09 09:48:06;;;;;;;7.60;6.80;;;14.70;56.50;;;;;;5071902;28;20181;-46
2023/03/09 09:51:11;;;;;;;8.17;7.40;;;14.60;56.40;;;;;;5078890;28;20193;-46
2023/03/09 09:54:05;;;;;;;7.97;7.17;;;14.70;56.50;;;;;;5088925;28;20200;-47
2023/03/09 09:56:59;;;;;;;8.03;7.23;;;14.70;56.50;;;;;;5083477;28;20657;-46
2023/03/09 10:00:04;;;;;;;7.40;6.60;;;14.60;56.40;;;;;;5072205;28;20616;-46
2023/03/09 10:03:01;;;;;;;7.60;6.80;;;14.60;56.40;;;;;;5088543;28;20196;-46
2023/03/09 10:06:05;;;;;;;8.03;7.23;;;14.70;56.50;;;;;;5089030;28;20207;-46
2023/03/09 10:09:06;;;;;;;7.90;7.10;;;14.60;56.40;;;;;;5080725;28;20659;-46
2023/03/09 10:11:46;;;;;;;7.57;6.77;;;14.60;56.40;;;;;;4999776;28;20241;-46
2023/03/09 10:15:00;;;;;;;8.80;7.90;;;14.60;56.40;;;;;;5070008;28;20201;-46
2023/03/09 10:17:49;;;;;;;7.67;6.97;;;14.60;56.40;;;;;;5087470;28;20262;-46
2023/03/09 10:20:32;;;;;;;8.23;7.43;;;14.70;56.40;;;;;;5085322;28;20209;-46
2023/03/09 10:23:23;;;;;;;8.13;7.33;;;14.60;56.40;;;;;;5082128;28;20209;-46
2023/03/09 10:25:57;;;;;;;7.97;7.17;;;14.60;56.40;;;;;;5069244;28;20224;-46
2023/03/09 10:28:40;;;;;;;7.93;7.13;;;14.70;56.40;;;;;;5056085;28;20204;-46
2023/03/09 10:32:01;;;;;;;8.23;7.30;;;14.70;56.40;;;;;;5083217;28;20572;-46
2023/03/09 10:35:08;;;;;;;8.97;8.07;;;14.70;56.30;;;;;;5077976;28;20280;-46
2023/03/09 10:37:37;;;;;;;9.17;8.07;;;14.60;56.30;;;;;;5070255;28;20615;-46
2023/03/09 10:40:32;;;;;;;8.63;7.60;;;14.70;56.40;;;;;;5095260;28;20207;-46
2023/03/09 10:43:30;;;;;;;9.40;8.20;;;14.70;56.30;;;;;;5058792;28;20189;-46
2023/03/09 10:46:21;;;;;;;8.20;7.37;;;14.70;56.30;;;;;;5093613;28;20680;-46
2023/03/09 10:49:14;;;;;;;9.40;8.17;;;14.70;56.30;;;;;;5057624;28;20533;-47
2023/03/09 10:51:55;;;;;;;8.80;7.77;;;14.70;56.30;;;;;;5080447;28;20241;-46
2023/03/09 10:54:29;;;;;;;8.00;7.20;;;14.70;56.30;;;;;;5050772;28;20190;-46
2023/03/09 10:57:00;;;;;;;9.40;8.40;;;14.70;56.30;;;;;;5040395;28;20209;-46
2023/03/09 10:59:32;;;;;;;9.43;8.03;;;14.70;56.30;;;;;;5050266;28;20186;-46
2023/03/09 11:02:31;;;;;;;8.50;7.43;;;14.70;56.30;;;;;;5059219;28;20193;-46
2023/03/09 11:05:35;;;;;;;10.23;7.60;;;14.70;56.20;;;;;;5057979;28;20200;-46
2023/03/09 11:08:07;;;;;;;9.87;8.43;;;14.70;56.20;;;;;;5027917;28;20209;-46
2023/03/09 11:10:42;;;;;;;11.70;6.93;;;14.70;56.20;;;;;;5064300;28;20572;-46
2023/03/09 11:13:20;;;;;;;8.70;7.80;;;14.80;56.30;;;;;;5062620;28;20225;-45
2023/03/09 11:16:06;;;;;;;8.53;7.60;;;14.70;56.20;;;;;;5042957;28;20202;-45
2023/03/09 11:18:37;;;;;;;8.73;7.83;;;14.80;56.20;;;;;;5052161;28;20193;-46
2023/03/09 11:21:08;;;;;;;9.07;8.17;;;14.70;56.20;;;;;;5056505;28;20232;-46
2023/03/09 11:23:45;;;;;;;9.10;8.20;;;14.80;56.50;;;;;;5063690;28;20197;-46
2023/03/09 11:26:34;;;;;;;12.10;8.47;;;14.80;56.60;;;;;;5047946;28;20602;-46
2023/03/09 11:29:40;;;;;;;8.70;7.80;;;14.80;56.60;;;;;;5035734;28;20200;-45
2023/03/09 11:32:12;;;;;;;9.67;8.63;;;14.80;56.60;;;;;;4978889;28;20243;-45
2023/03/09 11:34:45;;;;;;;10.10;9.10;;;14.80;56.60;;;;;;4997562;28;20244;-45
2023/03/09 11:38:03;;;;;;;9.93;8.93;;;14.80;56.50;;;;;;5045180;28;20197;-46
2023/03/09 11:40:38;;;;;;;9.27;8.27;;;14.80;56.40;;;;;;5047575;28;20243;-46
2023/03/09 11:43:31;;;;;;;10.17;8.60;;;14.80;56.40;;;;;;5051320;28;20194;-46
2023/03/09 11:46:05;;;;;;;9.53;8.20;;;14.90;56.50;;;;;;5050822;28;20206;-46
2023/03/09 11:48:48;;;;;;;9.00;7.93;;;14.90;56.40;;;;;;5065371;28;20213;-45
2023/03/09 11:51:29;;;;;;;9.93;8.93;;;14.90;56.40;;;;;;5045462;28;20931;-46
2023/03/09 11:54:38;;;;;;;9.47;8.43;;;14.80;56.30;;;;;;5068092;28;20197;-46
2023/03/09 11:57:19;;;;;;;8.70;7.80;;;14.90;56.40;;;;;;5060313;28;20207;-46
2023/03/09 12:00:15;;;;;;;10.80;9.60;;;14.90;56.40;;;;;;5069211;28;20681;-46
2023/03/09 12:03:16;;;;;;;9.80;8.67;;;14.90;56.40;;;;;;5088237;28;20712;-46
2023/03/09 12:05:58;;;;;;;10.33;8.20;;;14.90;56.30;;;;;;5059036;28;20250;-46
2023/03/09 12:08:37;;;;;;;10.03;8.20;;;14.90;56.40;;;;;;5070214;28;20288;-46
2023/03/09 12:11:25;;;;;;;11.60;9.30;;;14.90;56.40;;;;;;5082457;28;20196;-46
2023/03/09 12:14:33;;;;;;;10.27;9.03;;;14.90;56.20;;;;;;5086475;28;20205;-46
2023/03/09 12:17:15;;;;;;;9.47;8.07;;;14.90;56.20;;;;;;5085205;28;20208;-46
2023/03/09 12:19:51;;;;;;;12.37;10.13;;;14.90;56.20;;;;;;5064296;28;20681;-47
2023/03/09 12:22:40;;;;;;;12.53;9.20;;;14.90;56.40;;;;;;5075738;28;20201;-47
2023/03/09 12:25:18;;;;;;;14.87;8.80;;;14.90;56.80;;;;;;5049197;28;20205;-47
2023/03/09 12:27:54;;;;;;;12.07;9.03;;;15.00;56.80;;;;;;5072849;28;20539;-47
2023/03/09 12:30:33;;;;;;;13.37;8.53;;;15.00;56.60;;;;;;5090880;28;20544;-47
2023/03/09 12:33:03;;;;;;;14.50;8.97;;;15.00;56.50;;;;;;5084832;28;20235;-47
2023/03/09 12:36:05;;;;;;;12.00;8.30;;;14.90;56.50;;;;;;5091429;28;20197;-47
2023/03/09 12:38:35;;;;;;;11.30;8.80;;;15.00;56.50;;;;;;5088899;28;20184;-47
2023/03/09 12:41:26;;;;;;;10.77;9.00;;;14.90;56.40;;;;;;5088247;28;20189;-47
2023/03/09 12:43:55;;;;;;;16.83;9.13;;;15.00;56.90;;;;;;5062419;28;20654;-47
2023/03/09 12:47:00;;;;;;;14.03;9.57;;;14.90;57.70;;;;;;5086682;28;20713;-47
2023/03/09 12:49:34;;;;;;;9.90;8.33;;;15.00;58.00;;;;;;5046018;28;20284;-47
2023/03/09 12:52:23;;;;;;;13.07;8.57;;;15.00;58.60;;;;;;5034498;28;20277;-47
2023/03/09 12:55:00;;;;;;;11.30;9.30;;;14.90;58.50;;;;;;5032686;28;20580;-47
2023/03/09 12:57:30;;;;;;;11.43;9.00;;;14.90;58.80;;;;;;5029052;28;20215;-47
2023/03/09 13:00:25;;;;;;;14.53;9.50;;;15.00;59.80;;;;;;5027838;28;20199;-47
2023/03/09 13:03:05;;;;;;;12.30;9.13;;;15.00;59.10;;;;;;5012902;28;20872;-47
2023/03/09 13:05:53;;;;;;;10.70;8.30;;;15.00;59.30;;;;;;5007593;28;20203;-47
2023/03/09 13:08:39;;;;;;;12.73;8.50;;;15.00;59.10;;;;;;5022198;28;20221;-47
2023/03/09 13:11:33;;;;;;;10.00;8.33;;;15.00;59.30;;;;;;5005573;28;20211;-47
2023/03/09 13:14:26;;;;;;;9.27;8.17;;;15.00;59.60;;;;;;5027230;28;20211;-47
2023/03/09 13:17:03;;;;;;;10.80;9.30;;;15.00;59.70;;;;;;5044188;28;20233;-47
2023/03/09 13:19:48;;;;;;;10.37;8.80;;;15.00;59.90;;;;;;5067247;28;20214;-47
2023/03/09 13:22:20;;;;;;;10.70;8.50;;;15.00;60.00;;;;;;5035238;28;20561;-47
2023/03/09 13:25:18;;;;;;;10.10;8.27;;;15.00;60.00;;;;;;5053562;28;20198;-47
2023/03/09 13:28:03;;;;;;;10.03;8.20;;;15.00;60.60;;;;;;5058513;28;20202;-47
2023/03/09 13:30:36;;;;;;;9.63;8.13;;;15.00;60.00;;;;;;5070475;28;20310;-47
2023/03/09 13:33:22;;;;;;;10.37;7.97;;;15.00;60.10;;;;;;5038656;28;20239;-47